sensor_id;sensor_type;location;lat;lon;timestamp;pressure;altitude;pressure_sealevel;temperature;humidity
77090;BME280;66028;53.558;9.950;2022-12-16T00:01:54;100814.53;;;-2.11;81.44
77090;BME280;66028;53.558;9.950;2022-12-16T00:04:39;100809.75;;;-2.08;81.52
77090;BME280;66028;53.558;9.950;2022-12-16T00:07:25;100809.22;;;-2.11;80.80
77090;BME280;66028;53.558;9.950;2022-12-16T00:10:11;100822.66;;;-2.13;81.34
77090;BME280;66028;53.558;9.950;2022-12-16T00:12:56;100827.09;;;-2.22;81.46
77090;BME280;66028;53.558;9.950;2022-12-16T00:15:42;100828.47;;;-2.09;81.33
77090;BME280;66028;53.558;9.950;2022-12-16T00:18:28;100820.56;;;-2.01;81.13
77090;BME280;66028;53.558;9.950;2022-12-16T00:21:14;100824.75;;;-1.91;80.76
77090;BME280;66028;53.558;9.950;2022-12-16T00:23:59;100817.59;;;-1.98;80.94
77090;BME280;66028;53.558;9.950;2022-12-16T00:26:45;100830.34;;;-2.02;81.05
77090;BME280;66028;53.558;9.950;2022-12-16T00:29:31;100832.22;;;-1.94;81.25
77090;BME280;66028;53.558;9.950;2022-12-16T00:32:16;100825.59;;;-1.90;81.19
77090;BME280;66028;53.558;9.950;2022-12-16T00:35:02;100834.66;;;-2.01;81.67
77090;BME280;66028;53.558;9.950;2022-12-16T00:37:47;100827.94;;;-1.87;81.34
77090;BME280;66028;53.558;9.950;2022-12-16T00:40:33;100831.75;;;-1.90;81.19
77090;BME280;66028;53.558;9.950;2022-12-16T00:43:19;100826.13;;;-1.87;81.30
77090;BME280;66028;53.558;9.950;2022-12-16T00:46:04;100834.25;;;-1.88;80.82
77090;BME280;66028;53.558;9.950;2022-12-16T00:48:50;100832.03;;;-1.93;80.81
77090;BME280;66028;53.558;9.950;2022-12-16T00:51:35;100829.56;;;-1.94;80.43
77090;BME280;66028;53.558;9.950;2022-12-16T00:54:21;100829.56;;;-1.94;81.09
77090;BME280;66028;53.558;9.950;2022-12-16T00:57:07;100836.44;;;-1.84;81.19
77090;BME280;66028;53.558;9.950;2022-12-16T00:59:52;100840.91;;;-1.84;80.67
77090;BME280;66028;53.558;9.950;2022-12-16T01:02:39;100839.53;;;-1.88;81.05
77090;BME280;66028;53.558;9.950;2022-12-16T01:05:25;100843.19;;;-1.89;80.59
77090;BME280;66028;53.558;9.950;2022-12-16T01:08:13;100848.31;;;-1.96;80.73
77090;BME280;66028;53.558;9.950;2022-12-16T01:10:59;100850.16;;;-1.88;80.58
77090;BME280;66028;53.558;9.950;2022-12-16T01:13:45;100839.09;;;-1.84;80.75
77090;BME280;66028;53.558;9.950;2022-12-16T01:16:31;100852.97;;;-1.90;80.49
77090;BME280;66028;53.558;9.950;2022-12-16T01:19:16;100858.44;;;-1.91;80.80
77090;BME280;66028;53.558;9.950;2022-12-16T01:22:02;100868.53;;;-1.95;80.31
77090;BME280;66028;53.558;9.950;2022-12-16T01:24:48;100861.03;;;-1.99;81.45
77090;BME280;66028;53.558;9.950;2022-12-16T01:27:34;100863.00;;;-2.01;80.97
77090;BME280;66028;53.558;9.950;2022-12-16T01:30:19;100868.81;;;-2.06;81.21
77090;BME280;66028;53.558;9.950;2022-12-16T01:33:05;100880.59;;;-2.00;81.70
77090;BME280;66028;53.558;9.950;2022-12-16T01:35:57;100870.44;;;-2.05;81.42
77090;BME280;66028;53.558;9.950;2022-12-16T01:38:43;100877.78;;;-1.99;81.22
77090;BME280;66028;53.558;9.950;2022-12-16T01:41:28;100889.84;;;-2.04;81.42
77090;BME280;66028;53.558;9.950;2022-12-16T01:44:22;100889.69;;;-2.03;81.61
77090;BME280;66028;53.558;9.950;2022-12-16T01:47:18;100885.56;;;-2.05;81.40
77090;BME280;66028;53.558;9.950;2022-12-16T01:50:10;100892.00;;;-2.08;82.22
77090;BME280;66028;53.558;9.950;2022-12-16T01:53:02;100894.41;;;-2.14;82.45
77090;BME280;66028;53.558;9.950;2022-12-16T01:55:49;100886.16;;;-2.11;82.18
77090;BME280;66028;53.558;9.950;2022-12-16T01:58:38;100885.16;;;-2.10;82.54
77090;BME280;66028;53.558;9.950;2022-12-16T02:01:25;100884.19;;;-2.09;82.03
77090;BME280;66028;53.558;9.950;2022-12-16T02:04:11;100890.63;;;-2.12;81.96
77090;BME280;66028;53.558;9.950;2022-12-16T02:06:57;100891.75;;;-2.14;82.14
77090;BME280;66028;53.558;9.950;2022-12-16T02:09:43;100891.09;;;-2.17;82.53
77090;BME280;66028;53.558;9.950;2022-12-16T02:12:40;100888.59;;;-2.18;82.18
77090;BME280;66028;53.558;9.950;2022-12-16T02:15:51;100887.28;;;-2.14;82.26
77090;BME280;66028;53.558;9.950;2022-12-16T02:18:53;100894.66;;;-2.26;82.34
77090;BME280;66028;53.558;9.950;2022-12-16T02:28:41;100883.56;;;-2.47;83.13
77090;BME280;66028;53.558;9.950;2022-12-16T02:31:51;100889.78;;;-2.56;82.94
77090;BME280;66028;53.558;9.950;2022-12-16T02:34:47;100883.25;;;-2.62;83.81
77090;BME280;66028;53.558;9.950;2022-12-16T02:38:06;100890.16;;;-2.69;83.90
77090;BME280;66028;53.558;9.950;2022-12-16T02:41:04;100879.31;;;-2.75;84.25
77090;BME280;66028;53.558;9.950;2022-12-16T02:44:05;100886.91;;;-2.80;84.46
77090;BME280;66028;53.558;9.950;2022-12-16T02:46:54;100893.06;;;-2.90;84.66
77090;BME280;66028;53.558;9.950;2022-12-16T02:49:46;100897.75;;;-3.01;84.94
77090;BME280;66028;53.558;9.950;2022-12-16T02:52:33;100888.69;;;-2.99;85.19
77090;BME280;66028;53.558;9.950;2022-12-16T02:55:19;100894.88;;;-3.08;85.82
77090;BME280;66028;53.558;9.950;2022-12-16T02:58:27;100896.84;;;-3.10;85.81
77090;BME280;66028;53.558;9.950;2022-12-16T03:04:09;100902.19;;;-3.19;86.01
77090;BME280;66028;53.558;9.950;2022-12-16T03:06:59;100896.22;;;-3.21;86.15
77090;BME280;66028;53.558;9.950;2022-12-16T03:09:46;100899.13;;;-3.15;85.65
77090;BME280;66028;53.558;9.950;2022-12-16T03:12:33;100893.13;;;-3.17;85.42
77090;BME280;66028;53.558;9.950;2022-12-16T03:15:22;100888.28;;;-3.21;85.19
77090;BME280;66028;53.558;9.950;2022-12-16T03:18:11;100895.00;;;-3.27;85.57
77090;BME280;66028;53.558;9.950;2022-12-16T03:21:01;100893.06;;;-3.35;85.80
77090;BME280;66028;53.558;9.950;2022-12-16T03:23:56;100894.88;;;-3.35;85.82
77090;BME280;66028;53.558;9.950;2022-12-16T03:30:31;100907.59;;;-3.39;85.82
77090;BME280;66028;53.558;9.950;2022-12-16T03:33:28;100908.56;;;-3.40;85.55
77090;BME280;66028;53.558;9.950;2022-12-16T03:36:19;100910.06;;;-3.37;85.88
77090;BME280;66028;53.558;9.950;2022-12-16T03:39:07;100906.56;;;-3.28;85.12
77090;BME280;66028;53.558;9.950;2022-12-16T03:41:54;100907.56;;;-3.29;85.24
77090;BME280;66028;53.558;9.950;2022-12-16T03:44:42;100904.63;;;-3.36;85.10
77090;BME280;66028;53.558;9.950;2022-12-16T03:47:28;100910.44;;;-3.22;84.59
77090;BME280;66028;53.558;9.950;2022-12-16T03:50:13;100911.56;;;-3.25;85.00
77090;BME280;66028;53.558;9.950;2022-12-16T03:53:00;100914.25;;;-3.35;84.33
77090;BME280;66028;53.558;9.950;2022-12-16T03:55:46;100915.22;;;-3.36;84.54
77090;BME280;66028;53.558;9.950;2022-12-16T03:58:31;100923.31;;;-3.37;85.07
77090;BME280;66028;53.558;9.950;2022-12-16T04:01:19;100925.59;;;-3.42;85.06
77090;BME280;66028;53.558;9.950;2022-12-16T04:04:05;100927.28;;;-3.51;85.31
77090;BME280;66028;53.558;9.950;2022-12-16T04:06:51;100942.06;;;-3.58;85.58
77090;BME280;66028;53.558;9.950;2022-12-16T04:09:56;100937.38;;;-3.64;85.91
77090;BME280;66028;53.558;9.950;2022-12-16T04:12:42;100945.81;;;-3.60;86.17
77090;BME280;66028;53.558;9.950;2022-12-16T04:15:46;100943.31;;;-3.62;86.30
77090;BME280;66028;53.558;9.950;2022-12-16T04:18:50;100951.94;;;-3.60;86.42
77090;BME280;66028;53.558;9.950;2022-12-16T04:21:54;100948.91;;;-3.65;86.46
77090;BME280;66028;53.558;9.950;2022-12-16T04:25:03;100955.06;;;-3.65;86.44
77090;BME280;66028;53.558;9.950;2022-12-16T04:27:50;100951.44;;;-3.64;86.33
77090;BME280;66028;53.558;9.950;2022-12-16T04:30:35;100954.59;;;-3.60;86.59
77090;BME280;66028;53.558;9.950;2022-12-16T04:33:21;100955.44;;;-3.59;86.60
77090;BME280;66028;53.558;9.950;2022-12-16T04:36:25;100952.22;;;-3.53;86.60
77090;BME280;66028;53.558;9.950;2022-12-16T04:39:29;100960.44;;;-3.56;86.51
77090;BME280;66028;53.558;9.950;2022-12-16T04:42:33;100963.69;;;-3.63;86.57
77090;BME280;66028;53.558;9.950;2022-12-16T04:45:38;100964.66;;;-3.73;86.77
77090;BME280;66028;53.558;9.950;2022-12-16T04:48:42;100963.28;;;-3.77;86.83
77090;BME280;66028;53.558;9.950;2022-12-16T04:51:46;100967.63;;;-3.76;86.67
77090;BME280;66028;53.558;9.950;2022-12-16T04:54:50;100972.19;;;-3.78;86.61
77090;BME280;66028;53.558;9.950;2022-12-16T04:57:57;100975.66;;;-3.68;86.23
77090;BME280;66028;53.558;9.950;2022-12-16T05:01:02;100975.91;;;-3.62;85.94
77090;BME280;66028;53.558;9.950;2022-12-16T05:04:06;100974.94;;;-3.60;85.81
77090;BME280;66028;53.558;9.950;2022-12-16T05:07:10;100976.50;;;-3.68;85.65
77090;BME280;66028;53.558;9.950;2022-12-16T05:10:14;100975.25;;;-3.83;86.15
77090;BME280;66028;53.558;9.950;2022-12-16T05:13:18;100981.25;;;-3.81;86.31
77090;BME280;66028;53.558;9.950;2022-12-16T05:16:23;100979.47;;;-3.90;86.44
77090;BME280;66028;53.558;9.950;2022-12-16T05:19:27;100990.91;;;-3.99;86.65
77090;BME280;66028;53.558;9.950;2022-12-16T05:22:32;100991.28;;;-3.94;86.94
77090;BME280;66028;53.558;9.950;2022-12-16T05:25:36;100995.06;;;-3.87;87.08
77090;BME280;66028;53.558;9.950;2022-12-16T05:28:40;101004.78;;;-3.97;86.86
77090;BME280;66028;53.558;9.950;2022-12-16T05:32:04;101002.03;;;-4.05;87.12
77090;BME280;66028;53.558;9.950;2022-12-16T05:35:08;101009.81;;;-4.04;87.02
77090;BME280;66028;53.558;9.950;2022-12-16T05:38:12;101006.06;;;-4.11;87.38
77090;BME280;66028;53.558;9.950;2022-12-16T05:41:17;101014.41;;;-4.15;87.70
77090;BME280;66028;53.558;9.950;2022-12-16T05:44:21;101010.94;;;-4.16;87.69
77090;BME280;66028;53.558;9.950;2022-12-16T05:47:25;101018.03;;;-4.16;87.66
77090;BME280;66028;53.558;9.950;2022-12-16T05:50:30;101018.28;;;-4.19;87.80
77090;BME280;66028;53.558;9.950;2022-12-16T05:53:34;101019.56;;;-4.23;87.86
77090;BME280;66028;53.558;9.950;2022-12-16T05:56:39;101022.47;;;-4.26;87.70
77090;BME280;66028;53.558;9.950;2022-12-16T05:59:43;101024.16;;;-4.16;88.13
77090;BME280;66028;53.558;9.950;2022-12-16T06:02:48;101030.81;;;-4.21;88.08
77090;BME280;66028;53.558;9.950;2022-12-16T06:05:57;101034.72;;;-4.25;88.49
77090;BME280;66028;53.558;9.950;2022-12-16T06:09:02;101035.00;;;-4.09;88.49
77090;BME280;66028;53.558;9.950;2022-12-16T06:12:06;101044.47;;;-3.97;88.51
77090;BME280;66028;53.558;9.950;2022-12-16T06:15:10;101047.09;;;-3.97;88.17
77090;BME280;66028;53.558;9.950;2022-12-16T06:18:14;101049.06;;;-3.99;87.80
77090;BME280;66028;53.558;9.950;2022-12-16T06:21:19;101051.28;;;-4.04;88.10
77090;BME280;66028;53.558;9.950;2022-12-16T06:24:23;101057.84;;;-3.98;88.01
77090;BME280;66028;53.558;9.950;2022-12-16T06:27:27;101065.06;;;-4.01;87.77
77090;BME280;66028;53.558;9.950;2022-12-16T06:30:31;101062.13;;;-4.07;87.29
77090;BME280;66028;53.558;9.950;2022-12-16T06:33:36;101060.91;;;-4.13;88.03
77090;BME280;66028;53.558;9.950;2022-12-16T06:36:40;101071.88;;;-4.08;88.27
77090;BME280;66028;53.558;9.950;2022-12-16T06:39:44;101072.19;;;-4.11;88.25
77090;BME280;66028;53.558;9.950;2022-12-16T06:42:49;101077.88;;;-4.15;88.45
77090;BME280;66028;53.558;9.950;2022-12-16T06:45:53;101084.69;;;-4.13;88.35
77090;BME280;66028;53.558;9.950;2022-12-16T06:48:58;101084.13;;;-4.07;88.32
77090;BME280;66028;53.558;9.950;2022-12-16T06:52:01;101085.53;;;-4.03;88.32
77090;BME280;66028;53.558;9.950;2022-12-16T06:55:06;101092.34;;;-3.90;88.28
77090;BME280;66028;53.558;9.950;2022-12-16T06:58:10;101088.44;;;-3.86;88.01
77090;BME280;66028;53.558;9.950;2022-12-16T07:01:14;101092.47;;;-3.73;87.92
77090;BME280;66028;53.558;9.950;2022-12-16T07:04:19;101096.94;;;-3.54;87.68
77090;BME280;66028;53.558;9.950;2022-12-16T07:07:23;101104.06;;;-3.54;87.47
77090;BME280;66028;53.558;9.950;2022-12-16T07:10:27;101101.81;;;-3.40;87.42
77090;BME280;66028;53.558;9.950;2022-12-16T07:13:31;101116.72;;;-3.39;86.69
77090;BME280;66028;53.558;9.950;2022-12-16T07:16:35;101115.03;;;-3.30;86.33
77090;BME280;66028;53.558;9.950;2022-12-16T07:19:40;101118.09;;;-3.35;86.19
77090;BME280;66028;53.558;9.950;2022-12-16T07:22:45;101130.22;;;-3.32;86.48
77090;BME280;66028;53.558;9.950;2022-12-16T07:25:49;101139.84;;;-3.41;86.48
77090;BME280;66028;53.558;9.950;2022-12-16T07:28:53;101139.84;;;-3.41;86.58
77090;BME280;66028;53.558;9.950;2022-12-16T07:31:57;101145.97;;;-3.40;86.12
77090;BME280;66028;53.558;9.950;2022-12-16T07:35:02;101151.97;;;-3.38;86.31
77090;BME280;66028;53.558;9.950;2022-12-16T07:38:06;101152.22;;;-3.32;86.21
77090;BME280;66028;53.558;9.950;2022-12-16T07:41:10;101162.69;;;-3.20;85.47
77090;BME280;66028;53.558;9.950;2022-12-16T07:44:14;101164.38;;;-3.29;85.43
77090;BME280;66028;53.558;9.950;2022-12-16T07:47:18;101172.84;;;-3.35;86.02
77090;BME280;66028;53.558;9.950;2022-12-16T07:50:23;101181.09;;;-3.29;85.87
77090;BME280;66028;53.558;9.950;2022-12-16T07:53:27;101187.34;;;-3.30;86.18
77090;BME280;66028;53.558;9.950;2022-12-16T07:56:31;101193.63;;;-3.31;86.26
77090;BME280;66028;53.558;9.950;2022-12-16T07:59:35;101196.25;;;-3.21;85.75
77090;BME280;66028;53.558;9.950;2022-12-16T08:02:40;101196.56;;;-3.14;85.62
77090;BME280;66028;53.558;9.950;2022-12-16T08:05:44;101203.38;;;-3.02;85.44
77090;BME280;66028;53.558;9.950;2022-12-16T08:08:48;101204.19;;;-3.21;85.14
77090;BME280;66028;53.558;9.950;2022-12-16T08:11:52;101204.75;;;-3.08;84.81
77090;BME280;66028;53.558;9.950;2022-12-16T08:15:10;101218.97;;;-2.99;84.52
77090;BME280;66028;53.558;9.950;2022-12-16T08:18:14;101221.34;;;-2.96;84.55
77090;BME280;66028;53.558;9.950;2022-12-16T08:21:18;101231.63;;;-2.83;84.24
77090;BME280;66028;53.558;9.950;2022-12-16T08:24:23;101228.97;;;-2.74;83.44
77090;BME280;66028;53.558;9.950;2022-12-16T08:27:27;101239.56;;;-2.74;83.78
77090;BME280;66028;53.558;9.950;2022-12-16T08:30:31;101239.56;;;-2.74;83.76
77090;BME280;66028;53.558;9.950;2022-12-16T08:33:35;101246.13;;;-2.68;83.28
77090;BME280;66028;53.558;9.950;2022-12-16T08:36:40;101254.19;;;-2.60;82.92
77090;BME280;66028;53.558;9.950;2022-12-16T08:39:44;101256.13;;;-2.53;83.44
77090;BME280;66028;53.558;9.950;2022-12-16T08:42:48;101265.03;;;-2.44;83.21
77090;BME280;66028;53.558;9.950;2022-12-16T08:45:52;101272.16;;;-2.44;83.32
77090;BME280;66028;53.558;9.950;2022-12-16T08:48:56;101266.69;;;-2.33;82.67
77090;BME280;66028;53.558;9.950;2022-12-16T08:52:00;101272.78;;;-2.23;82.60
77090;BME280;66028;53.558;9.950;2022-12-16T08:55:05;101268.19;;;-2.21;82.09
77090;BME280;66028;53.558;9.950;2022-12-16T08:58:09;101276.00;;;-2.20;82.86
77090;BME280;66028;53.558;9.950;2022-12-16T09:01:13;101273.16;;;-2.08;82.76
77090;BME280;66028;53.558;9.950;2022-12-16T09:04:17;101267.94;;;-2.00;82.19
77090;BME280;66028;53.558;9.950;2022-12-16T09:07:21;101283.00;;;-1.91;81.66
77090;BME280;66028;53.558;9.950;2022-12-16T09:10:25;101295.00;;;-1.87;81.94
77090;BME280;66028;53.558;9.950;2022-12-16T09:13:30;101293.41;;;-1.80;81.40
77090;BME280;66028;53.558;9.950;2022-12-16T09:16:34;101301.09;;;-1.77;81.23
77090;BME280;66028;53.558;9.950;2022-12-16T09:19:38;101304.19;;;-1.82;80.94
77090;BME280;66028;53.558;9.950;2022-12-16T09:22:43;101307.22;;;-1.76;81.42
77090;BME280;66028;53.558;9.950;2022-12-16T09:25:47;101308.81;;;-1.84;81.63
77090;BME280;66028;53.558;9.950;2022-12-16T09:28:51;101310.38;;;-1.91;81.59
77090;BME280;66028;53.558;9.950;2022-12-16T09:31:55;101319.75;;;-1.96;82.03
77090;BME280;66028;53.558;9.950;2022-12-16T09:34:59;101318.41;;;-1.73;81.38
77090;BME280;66028;53.558;9.950;2022-12-16T09:38:03;101320.94;;;-1.81;81.55
77090;BME280;66028;53.558;9.950;2022-12-16T09:44:46;101330.56;;;-1.70;81.23
77090;BME280;66028;53.558;9.950;2022-12-16T09:48:08;101331.41;;;-1.70;81.12
77090;BME280;66028;53.558;9.950;2022-12-16T09:51:15;101334.56;;;-1.66;80.89
77090;BME280;66028;53.558;9.950;2022-12-16T09:54:22;101332.06;;;-1.68;80.78
77090;BME280;66028;53.558;9.950;2022-12-16T09:57:31;101339.78;;;-1.74;81.23
77090;BME280;66028;53.558;9.950;2022-12-16T10:00:36;101336.28;;;-1.75;81.51
77090;BME280;66028;53.558;9.950;2022-12-16T10:03:41;101336.72;;;-1.79;80.71
77090;BME280;66028;53.558;9.950;2022-12-16T10:06:47;101345.94;;;-1.74;80.76
77090;BME280;66028;53.558;9.950;2022-12-16T10:10:14;101344.66;;;-1.70;81.21
77090;BME280;66028;53.558;9.950;2022-12-16T10:17:00;101350.81;;;-1.69;80.13
77090;BME280;66028;53.558;9.950;2022-12-16T10:20:24;101353.94;;;-1.84;80.74
77090;BME280;66028;53.558;9.950;2022-12-16T10:23:55;101357.81;;;-1.78;80.52
77090;BME280;66028;53.558;9.950;2022-12-16T10:27:12;101354.69;;;-1.64;80.39
77090;BME280;66028;53.558;9.950;2022-12-16T10:30:16;101348.97;;;-1.69;80.12
77090;BME280;66028;53.558;9.950;2022-12-16T10:33:24;101357.81;;;-1.78;80.09
77090;BME280;66028;53.558;9.950;2022-12-16T10:36:30;101352.63;;;-1.70;79.67
77090;BME280;66028;53.558;9.950;2022-12-16T10:39:39;101354.00;;;-1.66;80.35
77090;BME280;66028;53.558;9.950;2022-12-16T10:42:50;101362.66;;;-1.64;79.95
77090;BME280;66028;53.558;9.950;2022-12-16T10:45:59;101363.41;;;-1.81;79.93
77090;BME280;66028;53.558;9.950;2022-12-16T10:49:04;101365.25;;;-1.91;80.46
77090;BME280;66028;53.558;9.950;2022-12-16T10:52:10;101369.53;;;-1.81;79.93
77090;BME280;66028;53.558;9.950;2022-12-16T10:55:53;101364.97;;;-1.88;80.27
77090;BME280;66028;53.558;9.950;2022-12-16T10:59:04;101363.84;;;-1.86;80.79
77090;BME280;66028;53.558;9.950;2022-12-16T11:02:20;101362.59;;;-1.91;81.04
77090;BME280;66028;53.558;9.950;2022-12-16T11:05:30;101362.88;;;-1.85;81.12
77090;BME280;66028;53.558;9.950;2022-12-16T11:08:35;101358.44;;;-1.94;80.89
77090;BME280;66028;53.558;9.950;2022-12-16T11:11:39;101363.47;;;-2.00;81.25
77090;BME280;66028;53.558;9.950;2022-12-16T11:14:51;101359.00;;;-2.00;80.68
77090;BME280;66028;53.558;9.950;2022-12-16T11:18:05;101363.63;;;-2.11;81.18
77090;BME280;66028;53.558;9.950;2022-12-16T11:24:19;101358.03;;;-1.99;80.63
77090;BME280;66028;53.558;9.950;2022-12-16T11:27:25;101361.06;;;-1.84;80.75
77090;BME280;66028;53.558;9.950;2022-12-16T11:30:29;101368.88;;;-1.92;81.07
77090;BME280;66028;53.558;9.950;2022-12-16T11:33:33;101372.00;;;-1.97;81.24
77090;BME280;66028;53.558;9.950;2022-12-16T11:36:39;101363.19;;;-1.97;81.39
77090;BME280;66028;53.558;9.950;2022-12-16T11:39:44;101366.78;;;-1.89;80.69
77090;BME280;66028;53.558;9.950;2022-12-16T11:42:49;101375.31;;;-1.85;81.32
77090;BME280;66028;53.558;9.950;2022-12-16T11:45:53;101372.22;;;-1.90;81.25
77090;BME280;66028;53.558;9.950;2022-12-16T11:49:00;101369.84;;;-1.84;81.29
77090;BME280;66028;53.558;9.950;2022-12-16T11:52:06;101370.00;;;-1.85;81.10
77090;BME280;66028;53.558;9.950;2022-12-16T11:55:18;101370.28;;;-1.88;80.66
77090;BME280;66028;53.558;9.950;2022-12-16T11:58:41;101366.50;;;-1.86;80.77
77090;BME280;66028;53.558;9.950;2022-12-16T12:01:52;101378.09;;;-1.87;81.40
77090;BME280;66028;53.558;9.950;2022-12-16T12:04:58;101373.91;;;-1.89;81.37
77090;BME280;66028;53.558;9.950;2022-12-16T12:08:20;101381.84;;;-1.79;80.94
77090;BME280;66028;53.558;9.950;2022-12-16T12:11:35;101376.00;;;-1.83;80.71
77090;BME280;66028;53.558;9.950;2022-12-16T12:15:06;101380.16;;;-1.43;79.03
77090;BME280;66028;53.558;9.950;2022-12-16T12:18:33;101393.28;;;-1.69;80.67
77090;BME280;66028;53.558;9.950;2022-12-16T12:22:01;101398.03;;;-1.73;79.82
77090;BME280;66028;53.558;9.950;2022-12-16T12:25:15;101397.91;;;-1.71;81.56
77090;BME280;66028;53.558;9.950;2022-12-16T12:28:38;101397.25;;;-1.56;80.56
77090;BME280;66028;53.558;9.950;2022-12-16T12:31:57;101393.59;;;-1.45;79.58
77090;BME280;66028;53.558;9.950;2022-12-16T12:35:27;101405.03;;;-1.45;80.43
77090;BME280;66028;53.558;9.950;2022-12-16T12:42:26;101408.28;;;-1.51;80.22
77090;BME280;66028;53.558;9.950;2022-12-16T12:48:51;101419.34;;;-1.46;80.57
77090;BME280;66028;53.558;9.950;2022-12-16T12:55:51;101414.13;;;-1.37;79.89
77090;BME280;66028;53.558;9.950;2022-12-16T12:59:04;101413.97;;;-1.36;79.76
77090;BME280;66028;53.558;9.950;2022-12-16T13:02:17;101420.13;;;-1.35;80.04
77090;BME280;66028;53.558;9.950;2022-12-16T13:05:24;101418.16;;;-1.33;79.52
77090;BME280;66028;53.558;9.950;2022-12-16T13:08:52;101425.09;;;-1.23;79.82
77090;BME280;66028;53.558;9.950;2022-12-16T13:12:27;101429.03;;;-0.99;79.35
77090;BME280;66028;53.558;9.950;2022-12-16T13:15:38;101436.22;;;-0.64;77.80
77090;BME280;66028;53.558;9.950;2022-12-16T13:18:43;101430.56;;;-0.79;78.00
77090;BME280;66028;53.558;9.950;2022-12-16T13:21:47;101436.03;;;-0.81;78.18
77090;BME280;66028;53.558;9.950;2022-12-16T13:24:51;101439.38;;;-0.79;77.49
77090;BME280;66028;53.558;9.950;2022-12-16T13:27:56;101443.66;;;-0.95;78.00
77090;BME280;66028;53.558;9.950;2022-12-16T13:31:03;101446.22;;;-0.76;78.08
77090;BME280;66028;53.558;9.950;2022-12-16T13:37:23;101445.59;;;-0.88;77.92
77090;BME280;66028;53.558;9.950;2022-12-16T13:41:05;101445.19;;;-0.93;78.52
77090;BME280;66028;53.558;9.950;2022-12-16T13:44:10;101449.81;;;-0.95;78.38
77090;BME280;66028;53.558;9.950;2022-12-16T13:50:57;101452.22;;;-1.29;79.54
77090;BME280;66028;53.558;9.950;2022-12-16T13:54:01;101466.28;;;-1.09;79.28
77090;BME280;66028;53.558;9.950;2022-12-16T13:57:10;101459.09;;;-1.26;79.58
77090;BME280;66028;53.558;9.950;2022-12-16T14:00:20;101459.97;;;-1.35;80.25
77090;BME280;66028;53.558;9.950;2022-12-16T14:03:37;101463.78;;;-1.11;80.16
77090;BME280;66028;53.558;9.950;2022-12-16T14:06:43;101470.78;;;-1.19;79.47
77090;BME280;66028;53.558;9.950;2022-12-16T14:09:48;101479.91;;;-0.94;78.88
77090;BME280;66028;53.558;9.950;2022-12-16T14:13:02;101477.25;;;-0.94;78.96
77090;BME280;66028;53.558;9.950;2022-12-16T14:16:31;101480.16;;;-0.88;78.57
77090;BME280;66028;53.558;9.950;2022-12-16T14:23:26;101479.13;;;-1.04;79.60
77090;BME280;66028;53.558;9.950;2022-12-16T14:26:34;101477.50;;;-1.15;79.80
77090;BME280;66028;53.558;9.950;2022-12-16T14:29:41;101479.78;;;-1.30;79.75
77090;BME280;66028;53.558;9.950;2022-12-16T14:32:46;101487.28;;;-1.62;81.33
77090;BME280;66028;53.558;9.950;2022-12-16T14:35:50;101497.94;;;-1.72;82.28
77090;BME280;66028;53.558;9.950;2022-12-16T14:38:54;101500.03;;;-1.75;82.04
77090;BME280;66028;53.558;9.950;2022-12-16T14:41:58;101501.13;;;-1.59;81.46
77090;BME280;66028;53.558;9.950;2022-12-16T14:45:04;101506.59;;;-1.70;81.65
77090;BME280;66028;53.558;9.950;2022-12-16T14:48:24;101500.03;;;-1.85;82.75
77090;BME280;66028;53.558;9.950;2022-12-16T14:54:38;101510.25;;;-2.00;83.09
77090;BME280;66028;53.558;9.950;2022-12-16T14:58:03;101519.31;;;-2.12;84.08
77090;BME280;66028;53.558;9.950;2022-12-16T15:01:20;101513.75;;;-2.19;83.94
77090;BME280;66028;53.558;9.950;2022-12-16T15:04:24;101520.28;;;-2.23;84.50
77090;BME280;66028;53.558;9.950;2022-12-16T15:07:33;101519.31;;;-2.22;84.46
77090;BME280;66028;53.558;9.950;2022-12-16T15:10:38;101519.72;;;-2.36;84.79
77090;BME280;66028;53.558;9.950;2022-12-16T15:13:42;101529.34;;;-2.44;85.35
77090;BME280;66028;53.558;9.950;2022-12-16T15:16:48;101532.41;;;-2.49;85.10
77090;BME280;66028;53.558;9.950;2022-12-16T15:19:53;101543.00;;;-2.49;85.66
77090;BME280;66028;53.558;9.950;2022-12-16T15:22:57;101551.09;;;-2.41;85.07
77090;BME280;66028;53.558;9.950;2022-12-16T15:26:01;101560.06;;;-2.42;85.08
77090;BME280;66028;53.558;9.950;2022-12-16T15:29:26;101565.31;;;-2.51;85.27
77090;BME280;66028;53.558;9.950;2022-12-16T15:32:33;101572.19;;;-2.39;86.09
77090;BME280;66028;53.558;9.950;2022-12-16T15:35:39;101578.22;;;-2.28;85.49
77090;BME280;66028;53.558;9.950;2022-12-16T15:38:43;101582.16;;;-2.22;85.50
77090;BME280;66028;53.558;9.950;2022-12-16T15:41:47;101592.38;;;-2.08;85.70
77090;BME280;66028;53.558;9.950;2022-12-16T15:44:52;101592.50;;;-2.00;85.17
77090;BME280;66028;53.558;9.950;2022-12-16T15:47:56;101594.06;;;-1.97;84.80
77090;BME280;66028;53.558;9.950;2022-12-16T15:51:00;101606.63;;;-1.90;84.49
77090;BME280;66028;53.558;9.950;2022-12-16T15:54:04;101604.66;;;-1.88;84.48
77090;BME280;66028;53.558;9.950;2022-12-16T15:57:30;101608.03;;;-1.86;84.23
77090;BME280;66028;53.558;9.950;2022-12-16T16:00:34;101617.66;;;-1.75;84.02
77090;BME280;66028;53.558;9.950;2022-12-16T16:03:38;101621.28;;;-1.76;84.09
77090;BME280;66028;53.558;9.950;2022-12-16T16:06:52;101613.47;;;-1.68;83.93
77090;BME280;66028;53.558;9.950;2022-12-16T16:10:23;101615.44;;;-1.70;83.81
77090;BME280;66028;53.558;9.950;2022-12-16T16:13:26;101608.56;;;-1.92;84.61
77090;BME280;66028;53.558;9.950;2022-12-16T16:16:30;101616.25;;;-2.08;84.91
77090;BME280;66028;53.558;9.950;2022-12-16T16:19:34;101621.09;;;-2.13;85.28
77090;BME280;66028;53.558;9.950;2022-12-16T16:22:38;101618.47;;;-2.13;85.42
77090;BME280;66028;53.558;9.950;2022-12-16T16:25:43;101623.19;;;-2.17;85.38
77090;BME280;66028;53.558;9.950;2022-12-16T16:28:48;101632.16;;;-2.17;85.81
77090;BME280;66028;53.558;9.950;2022-12-16T16:31:52;101632.16;;;-2.17;86.00
77090;BME280;66028;53.558;9.950;2022-12-16T16:34:56;101639.25;;;-2.18;86.05
77090;BME280;66028;53.558;9.950;2022-12-16T16:38:00;101643.72;;;-2.19;86.36
77090;BME280;66028;53.558;9.950;2022-12-16T16:41:12;101643.72;;;-2.19;85.85
77090;BME280;66028;53.558;9.950;2022-12-16T16:44:17;101641.06;;;-2.19;85.97